sensor_id;sensor_type;location;lat;lon;timestamp;temperature;humidity
52643;DHT22;38531;53.296;6.614;2023-02-22T00:00:45;8.30;99.90
52643;DHT22;38531;53.296;6.614;2023-02-22T00:03:21;8.30;99.90
52643;DHT22;38531;53.296;6.614;2023-02-22T00:06:00;7.90;99.90
52643;DHT22;38531;53.296;6.614;2023-02-22T00:08:35;8.30;99.90
52643;DHT22;38531;53.296;6.614;2023-02-22T00:11:03;8.30;99.90
52643;DHT22;38531;53.296;6.614;2023-02-22T00:13:33;8.30;99.90
52643;DHT22;38531;53.296;6.614;2023-02-22T00:15:59;8.20;99.90
52643;DHT22;38531;53.296;6.614;2023-02-22T00:18:26;8.40;99.90
52643;DHT22;38531;53.296;6.614;2023-02-22T00:20:57;8.40;99.90
52643;DHT22;38531;53.296;6.614;2023-02-22T00:23:27;8.30;99.90
52643;DHT22;38531;53.296;6.614;2023-02-22T00:25:55;8.50;99.90
52643;DHT22;38531;53.296;6.614;2023-02-22T00:28:21;8.30;99.90
52643;DHT22;38531;53.296;6.614;2023-02-22T00:30:49;8.50;99.90
52643;DHT22;38531;53.296;6.614;2023-02-22T00:33:16;8.30;99.90
52643;DHT22;38531;53.296;6.614;2023-02-22T00:35:43;8.90;99.90
52643;DHT22;38531;53.296;6.614;2023-02-22T00:38:11;9.30;99.90
52643;DHT22;38531;53.296;6.614;2023-02-22T00:40:37;8.40;99.90
52643;DHT22;38531;53.296;6.614;2023-02-22T00:43:05;8.90;99.90
52643;DHT22;38531;53.296;6.614;2023-02-22T00:45:32;8.30;99.90
52643;DHT22;38531;53.296;6.614;2023-02-22T00:47:59;8.20;99.90
52643;DHT22;38531;53.296;6.614;2023-02-22T00:50:27;8.40;99.90
52643;DHT22;38531;53.296;6.614;2023-02-22T00:52:54;8.50;99.90
52643;DHT22;38531;53.296;6.614;2023-02-22T00:55:26;8.20;99.90
52643;DHT22;38531;53.296;6.614;2023-02-22T00:57:53;8.20;99.90
52643;DHT22;38531;53.296;6.614;2023-02-22T01:00:28;8.50;99.90
52643;DHT22;38531;53.296;6.614;2023-02-22T01:02:55;9.20;99.90
52643;DHT22;38531;53.296;6.614;2023-02-22T01:05:23;8.80;99.90
52643;DHT22;38531;53.296;6.614;2023-02-22T01:07:49;8.50;99.90
52643;DHT22;38531;53.296;6.614;2023-02-22T01:10:18;8.30;99.90
52643;DHT22;38531;53.296;6.614;2023-02-22T01:12:45;8.20;99.90
52643;DHT22;38531;53.296;6.614;2023-02-22T01:15:11;8.20;99.90
52643;DHT22;38531;53.296;6.614;2023-02-22T01:17:38;8.20;99.90
52643;DHT22;38531;53.296;6.614;2023-02-22T01:20:07;9.20;99.90
52643;DHT22;38531;53.296;6.614;2023-02-22T01:22:41;8.20;99.90
52643;DHT22;38531;53.296;6.614;2023-02-22T01:25:09;8.20;99.90
52643;DHT22;38531;53.296;6.614;2023-02-22T01:27:35;8.40;99.90
52643;DHT22;38531;53.296;6.614;2023-02-22T01:30:02;9.10;99.90
52643;DHT22;38531;53.296;6.614;2023-02-22T01:32:34;8.60;99.90
52643;DHT22;38531;53.296;6.614;2023-02-22T01:35:00;8.20;99.90
52643;DHT22;38531;53.296;6.614;2023-02-22T01:37:30;8.20;99.90
52643;DHT22;38531;53.296;6.614;2023-02-22T01:39:56;8.80;99.90
52643;DHT22;38531;53.296;6.614;2023-02-22T01:42:22;8.70;99.90
52643;DHT22;38531;53.296;6.614;2023-02-22T01:47:53;8.20;99.90
52643;DHT22;38531;53.296;6.614;2023-02-22T01:50:20;8.20;99.90
52643;DHT22;38531;53.296;6.614;2023-02-22T01:52:46;8.20;99.90
52643;DHT22;38531;53.296;6.614;2023-02-22T01:55:12;8.90;99.90
52643;DHT22;38531;53.296;6.614;2023-02-22T01:57:38;8.10;99.90
52643;DHT22;38531;53.296;6.614;2023-02-22T02:00:12;8.30;99.90
52643;DHT22;38531;53.296;6.614;2023-02-22T02:02:44;8.20;99.90
52643;DHT22;38531;53.296;6.614;2023-02-22T02:05:11;8.10;99.90
52643;DHT22;38531;53.296;6.614;2023-02-22T02:07:38;8.60;99.90
52643;DHT22;38531;53.296;6.614;2023-02-22T02:10:09;8.90;99.90
52643;DHT22;38531;53.296;6.614;2023-02-22T02:12:46;8.10;99.90
52643;DHT22;38531;53.296;6.614;2023-02-22T02:15:31;8.10;99.90
52643;DHT22;38531;53.296;6.614;2023-02-22T02:18:02;8.10;99.90
52643;DHT22;38531;53.296;6.614;2023-02-22T02:48:57;8.10;99.90
52643;DHT22;38531;53.296;6.614;2023-02-22T02:51:27;8.10;99.90
52643;DHT22;38531;53.296;6.614;2023-02-22T02:53:55;8.50;99.90
52643;DHT22;38531;53.296;6.614;2023-02-22T02:56:21;8.10;99.90
52643;DHT22;38531;53.296;6.614;2023-02-22T02:58:52;9.00;99.90
52643;DHT22;38531;53.296;6.614;2023-02-22T03:17:54;8.00;99.90
52643;DHT22;38531;53.296;6.614;2023-02-22T03:20:43;8.10;99.90
52643;DHT22;38531;53.296;6.614;2023-02-22T03:25:58;8.00;99.90
52643;DHT22;38531;53.296;6.614;2023-02-22T03:28:28;8.10;99.90
52643;DHT22;38531;53.296;6.614;2023-02-22T03:31:02;8.40;99.90
52643;DHT22;38531;53.296;6.614;2023-02-22T03:33:32;8.00;99.90
52643;DHT22;38531;53.296;6.614;2023-02-22T03:38:35;8.00;99.90
52643;DHT22;38531;53.296;6.614;2023-02-22T03:41:02;8.00;99.90
52643;DHT22;38531;53.296;6.614;2023-02-22T03:43:33;8.00;99.90
52643;DHT22;38531;53.296;6.614;2023-02-22T03:46:01;8.30;99.90
52643;DHT22;38531;53.296;6.614;2023-02-22T03:48:49;8.00;99.90
52643;DHT22;38531;53.296;6.614;2023-02-22T03:51:19;8.00;99.90
52643;DHT22;38531;53.296;6.614;2023-02-22T03:53:46;8.10;99.90
52643;DHT22;38531;53.296;6.614;2023-02-22T03:56:22;8.40;99.90
52643;DHT22;38531;53.296;6.614;2023-02-22T03:58:50;8.10;99.90
52643;DHT22;38531;53.296;6.614;2023-02-22T04:01:16;8.00;99.90
52643;DHT22;38531;53.296;6.614;2023-02-22T04:03:42;8.00;99.90
52643;DHT22;38531;53.296;6.614;2023-02-22T04:06:08;8.40;99.90
52643;DHT22;38531;53.296;6.614;2023-02-22T04:08:34;8.70;99.90
52643;DHT22;38531;53.296;6.614;2023-02-22T04:11:00;8.30;99.90
52643;DHT22;38531;53.296;6.614;2023-02-22T04:13:26;8.00;99.90
52643;DHT22;38531;53.296;6.614;2023-02-22T04:15:52;9.00;99.90
52643;DHT22;38531;53.296;6.614;2023-02-22T04:18:18;7.90;99.90
52643;DHT22;38531;53.296;6.614;2023-02-22T04:20:44;7.90;99.90
52643;DHT22;38531;53.296;6.614;2023-02-22T04:23:10;7.90;99.90
52643;DHT22;38531;53.296;6.614;2023-02-22T04:25:36;7.90;99.90
52643;DHT22;38531;53.296;6.614;2023-02-22T04:28:02;8.50;99.90
52643;DHT22;38531;53.296;6.614;2023-02-22T04:30:28;8.20;99.90
52643;DHT22;38531;53.296;6.614;2023-02-22T04:32:55;9.00;99.90
52643;DHT22;38531;53.296;6.614;2023-02-22T04:35:21;8.60;99.90
52643;DHT22;38531;53.296;6.614;2023-02-22T04:37:47;8.40;99.90
52643;DHT22;38531;53.296;6.614;2023-02-22T04:40:14;8.80;99.90
52643;DHT22;38531;53.296;6.614;2023-02-22T04:42:41;7.90;99.90
52643;DHT22;38531;53.296;6.614;2023-02-22T04:45:09;7.90;99.90
52643;DHT22;38531;53.296;6.614;2023-02-22T04:47:36;7.80;99.90
52643;DHT22;38531;53.296;6.614;2023-02-22T04:50:03;7.90;99.90
52643;DHT22;38531;53.296;6.614;2023-02-22T04:52:29;7.80;99.90
52643;DHT22;38531;53.296;6.614;2023-02-22T04:54:55;7.80;99.90
52643;DHT22;38531;53.296;6.614;2023-02-22T04:57:21;8.00;99.90
52643;DHT22;38531;53.296;6.614;2023-02-22T04:59:47;8.80;99.90
52643;DHT22;38531;53.296;6.614;2023-02-22T05:02:13;7.80;99.90
52643;DHT22;38531;53.296;6.614;2023-02-22T05:04:38;7.80;99.90
52643;DHT22;38531;53.296;6.614;2023-02-22T05:07:04;8.70;99.90
52643;DHT22;38531;53.296;6.614;2023-02-22T05:09:30;8.00;99.90
52643;DHT22;38531;53.296;6.614;2023-02-22T05:11:56;7.80;99.90
52643;DHT22;38531;53.296;6.614;2023-02-22T05:14:21;8.30;99.90
52643;DHT22;38531;53.296;6.614;2023-02-22T05:16:52;7.80;99.90
52643;DHT22;38531;53.296;6.614;2023-02-22T05:19:18;7.70;99.90
52643;DHT22;38531;53.296;6.614;2023-02-22T05:21:44;8.50;99.90
52643;DHT22;38531;53.296;6.614;2023-02-22T05:24:09;8.70;99.90
52643;DHT22;38531;53.296;6.614;2023-02-22T05:26:35;7.80;99.90
52643;DHT22;38531;53.296;6.614;2023-02-22T05:29:01;7.70;99.90
52643;DHT22;38531;53.296;6.614;2023-02-22T05:31:26;8.00;99.90
52643;DHT22;38531;53.296;6.614;2023-02-22T05:33:52;8.00;99.90
52643;DHT22;38531;53.296;6.614;2023-02-22T05:36:18;7.70;99.90
52643;DHT22;38531;53.296;6.614;2023-02-22T05:38:43;8.30;99.90
52643;DHT22;38531;53.296;6.614;2023-02-22T05:41:11;8.20;99.90
52643;DHT22;38531;53.296;6.614;2023-02-22T05:43:38;7.70;99.90
52643;DHT22;38531;53.296;6.614;2023-02-22T05:46:04;7.80;99.90
52643;DHT22;38531;53.296;6.614;2023-02-22T05:48:29;7.70;99.90
52643;DHT22;38531;53.296;6.614;2023-02-22T05:50:56;8.40;99.90
52643;DHT22;38531;53.296;6.614;2023-02-22T05:53:22;7.70;99.90
52643;DHT22;38531;53.296;6.614;2023-02-22T05:55:49;8.10;99.90
52643;DHT22;38531;53.296;6.614;2023-02-22T05:58:15;8.20;99.90
52643;DHT22;38531;53.296;6.614;2023-02-22T06:00:40;8.00;99.90
52643;DHT22;38531;53.296;6.614;2023-02-22T06:03:08;8.00;99.90
52643;DHT22;38531;53.296;6.614;2023-02-22T06:05:35;8.50;99.90
52643;DHT22;38531;53.296;6.614;2023-02-22T06:08:02;7.90;99.90
52643;DHT22;38531;53.296;6.614;2023-02-22T06:10:28;7.80;99.90
52643;DHT22;38531;53.296;6.614;2023-02-22T06:12:55;8.20;99.90
52643;DHT22;38531;53.296;6.614;2023-02-22T06:15:21;7.70;99.90
52643;DHT22;38531;53.296;6.614;2023-02-22T06:17:48;7.70;99.90
52643;DHT22;38531;53.296;6.614;2023-02-22T06:20:16;7.30;99.90
52643;DHT22;38531;53.296;6.614;2023-02-22T06:22:42;8.60;99.90
52643;DHT22;38531;53.296;6.614;2023-02-22T06:25:13;8.80;99.90
52643;DHT22;38531;53.296;6.614;2023-02-22T06:27:39;7.90;99.90
52643;DHT22;38531;53.296;6.614;2023-02-22T06:30:05;8.70;99.90
52643;DHT22;38531;53.296;6.614;2023-02-22T06:32:31;7.70;99.90
52643;DHT22;38531;53.296;6.614;2023-02-22T06:34:57;8.50;99.90
52643;DHT22;38531;53.296;6.614;2023-02-22T06:37:22;7.70;99.90
52643;DHT22;38531;53.296;6.614;2023-02-22T06:39:48;7.70;99.90
52643;DHT22;38531;53.296;6.614;2023-02-22T06:42:14;7.70;99.90
52643;DHT22;38531;53.296;6.614;2023-02-22T06:44:40;7.60;99.90
52643;DHT22;38531;53.296;6.614;2023-02-22T06:47:05;8.50;99.90
52643;DHT22;38531;53.296;6.614;2023-02-22T06:49:31;7.70;99.90
52643;DHT22;38531;53.296;6.614;2023-02-22T06:51:57;7.70;99.90
52643;DHT22;38531;53.296;6.614;2023-02-22T06:54:23;8.70;99.90
52643;DHT22;38531;53.296;6.614;2023-02-22T06:56:48;7.70;99.90
52643;DHT22;38531;53.296;6.614;2023-02-22T06:59:15;7.50;99.90
52643;DHT22;38531;53.296;6.614;2023-02-22T07:01:41;8.40;99.90
52643;DHT22;38531;53.296;6.614;2023-02-22T07:04:07;7.90;99.90
52643;DHT22;38531;53.296;6.614;2023-02-22T07:06:33;8.40;99.90
52643;DHT22;38531;53.296;6.614;2023-02-22T07:08:59;8.10;99.90
52643;DHT22;38531;53.296;6.614;2023-02-22T07:11:25;7.60;99.90
52643;DHT22;38531;53.296;6.614;2023-02-22T07:13:51;7.60;99.90
52643;DHT22;38531;53.296;6.614;2023-02-22T07:16:17;7.60;99.90
52643;DHT22;38531;53.296;6.614;2023-02-22T07:18:43;7.60;99.90
52643;DHT22;38531;53.296;6.614;2023-02-22T07:21:09;7.60;99.90
52643;DHT22;38531;53.296;6.614;2023-02-22T07:23:35;7.50;99.90
52643;DHT22;38531;53.296;6.614;2023-02-22T07:26:02;7.60;99.90
52643;DHT22;38531;53.296;6.614;2023-02-22T07:28:28;7.50;99.90
52643;DHT22;38531;53.296;6.614;2023-02-22T07:30:54;7.50;99.90
52643;DHT22;38531;53.296;6.614;2023-02-22T07:33:19;7.60;99.90
52643;DHT22;38531;53.296;6.614;2023-02-22T07:35:49;7.60;99.90
52643;DHT22;38531;53.296;6.614;2023-02-22T07:38:17;7.00;99.90
52643;DHT22;38531;53.296;6.614;2023-02-22T07:40:44;7.60;99.90
52643;DHT22;38531;53.296;6.614;2023-02-22T07:43:18;7.60;99.90
52643;DHT22;38531;53.296;6.614;2023-02-22T07:45:45;8.60;99.90
52643;DHT22;38531;53.296;6.614;2023-02-22T07:48:12;7.00;99.90
52643;DHT22;38531;53.296;6.614;2023-02-22T07:50:38;7.60;99.90
52643;DHT22;38531;53.296;6.614;2023-02-22T07:53:07;7.60;99.90
52643;DHT22;38531;53.296;6.614;2023-02-22T07:55:33;7.60;99.90
52643;DHT22;38531;53.296;6.614;2023-02-22T07:58:04;7.70;99.90
52643;DHT22;38531;53.296;6.614;2023-02-22T08:00:38;8.50;99.90
52643;DHT22;38531;53.296;6.614;2023-02-22T08:03:09;7.20;99.90
52643;DHT22;38531;53.296;6.614;2023-02-22T08:05:36;7.70;99.90
52643;DHT22;38531;53.296;6.614;2023-02-22T08:08:03;7.30;99.90
52643;DHT22;38531;53.296;6.614;2023-02-22T08:10:33;7.70;99.90
52643;DHT22;38531;53.296;6.614;2023-02-22T08:13:00;7.90;99.90
52643;DHT22;38531;53.296;6.614;2023-02-22T08:15:34;7.10;99.90
52643;DHT22;38531;53.296;6.614;2023-02-22T08:18:04;7.80;99.90
52643;DHT22;38531;53.296;6.614;2023-02-22T08:20:30;7.80;99.90
52643;DHT22;38531;53.296;6.614;2023-02-22T08:22:57;7.60;99.90
52643;DHT22;38531;53.296;6.614;2023-02-22T08:25:25;7.90;99.90
52643;DHT22;38531;53.296;6.614;2023-02-22T08:27:52;7.90;99.90
52643;DHT22;38531;53.296;6.614;2023-02-22T08:30:23;8.00;99.90
52643;DHT22;38531;53.296;6.614;2023-02-22T08:32:52;8.00;99.90
52643;DHT22;38531;53.296;6.614;2023-02-22T08:35:19;8.00;99.90
52643;DHT22;38531;53.296;6.614;2023-02-22T08:37:48;8.00;99.90
52643;DHT22;38531;53.296;6.614;2023-02-22T08:40:16;8.00;99.90
52643;DHT22;38531;53.296;6.614;2023-02-22T08:42:43;8.10;99.90
52643;DHT22;38531;53.296;6.614;2023-02-22T08:45:09;8.10;99.90
52643;DHT22;38531;53.296;6.614;2023-02-22T08:47:36;8.10;99.90
52643;DHT22;38531;53.296;6.614;2023-02-22T08:50:02;8.20;99.90
52643;DHT22;38531;53.296;6.614;2023-02-22T08:52:28;8.20;99.90
52643;DHT22;38531;53.296;6.614;2023-02-22T08:54:54;8.20;99.90
52643;DHT22;38531;53.296;6.614;2023-02-22T08:57:22;8.20;99.90
52643;DHT22;38531;53.296;6.614;2023-02-22T08:59:48;8.30;99.90
52643;DHT22;38531;53.296;6.614;2023-02-22T09:02:19;8.30;99.90
52643;DHT22;38531;53.296;6.614;2023-02-22T09:04:48;8.30;99.90
52643;DHT22;38531;53.296;6.614;2023-02-22T09:07:16;8.30;99.90
52643;DHT22;38531;53.296;6.614;2023-02-22T09:09:45;8.40;99.90
52643;DHT22;38531;53.296;6.614;2023-02-22T09:12:11;8.30;99.90
52643;DHT22;38531;53.296;6.614;2023-02-22T09:14:40;8.40;99.90
52643;DHT22;38531;53.296;6.614;2023-02-22T09:17:07;8.40;99.90
52643;DHT22;38531;53.296;6.614;2023-02-22T09:19:44;8.40;99.90
52643;DHT22;38531;53.296;6.614;2023-02-22T09:22:10;8.40;99.90
52643;DHT22;38531;53.296;6.614;2023-02-22T09:24:38;9.30;99.90
52643;DHT22;38531;53.296;6.614;2023-02-22T09:27:06;8.50;99.90
52643;DHT22;38531;53.296;6.614;2023-02-22T09:29:36;8.50;99.90
52643;DHT22;38531;53.296;6.614;2023-02-22T09:32:04;8.90;99.90
52643;DHT22;38531;53.296;6.614;2023-02-22T09:34:30;8.60;99.90
52643;DHT22;38531;53.296;6.614;2023-02-22T09:37:00;8.60;99.90
52643;DHT22;38531;53.296;6.614;2023-02-22T09:39:32;8.60;99.90
52643;DHT22;38531;53.296;6.614;2023-02-22T09:42:09;8.60;99.90
52643;DHT22;38531;53.296;6.614;2023-02-22T09:47:15;8.70;99.90
52643;DHT22;38531;53.296;6.614;2023-02-22T09:53:19;8.70;99.90
52643;DHT22;38531;53.296;6.614;2023-02-22T09:55:58;8.70;99.90
52643;DHT22;38531;53.296;6.614;2023-02-22T09:58:30;9.30;99.90
52643;DHT22;38531;53.296;6.614;2023-02-22T10:09:38;8.90;99.90
52643;DHT22;38531;53.296;6.614;2023-02-22T10:15:06;8.90;99.90
52643;DHT22;38531;53.296;6.614;2023-02-22T10:23:29;8.90;99.90
52643;DHT22;38531;53.296;6.614;2023-02-22T10:26:04;8.90;99.90
52643;DHT22;38531;53.296;6.614;2023-02-22T10:28:47;8.90;99.90
52643;DHT22;38531;53.296;6.614;2023-02-22T10:31:24;8.90;99.90
52643;DHT22;38531;53.296;6.614;2023-02-22T10:34:14;9.00;99.90
52643;DHT22;38531;53.296;6.614;2023-02-22T10:36:45;9.00;99.90
52643;DHT22;38531;53.296;6.614;2023-02-22T10:39:26;9.00;99.90
52643;DHT22;38531;53.296;6.614;2023-02-22T10:41:56;9.00;99.90
52643;DHT22;38531;53.296;6.614;2023-02-22T10:44:23;9.00;99.90
52643;DHT22;38531;53.296;6.614;2023-02-22T10:46:50;9.10;99.90
52643;DHT22;38531;53.296;6.614;2023-02-22T10:49:22;9.10;99.90
52643;DHT22;38531;53.296;6.614;2023-02-22T10:51:59;9.10;99.90
52643;DHT22;38531;53.296;6.614;2023-02-22T10:54:32;9.10;99.90
52643;DHT22;38531;53.296;6.614;2023-02-22T10:57:01;9.10;99.90
52643;DHT22;38531;53.296;6.614;2023-02-22T10:59:34;9.10;99.90
52643;DHT22;38531;53.296;6.614;2023-02-22T11:04:48;9.20;99.90
52643;DHT22;38531;53.296;6.614;2023-02-22T11:09:56;9.30;99.90
52643;DHT22;38531;53.296;6.614;2023-02-22T11:12:32;9.40;99.90
52643;DHT22;38531;53.296;6.614;2023-02-22T11:17:50;9.40;99.90
52643;DHT22;38531;53.296;6.614;2023-02-22T11:20:32;9.50;99.90
52643;DHT22;38531;53.296;6.614;2023-02-22T11:23:02;9.90;99.90
52643;DHT22;38531;53.296;6.614;2023-02-22T11:25:33;9.70;99.90
52643;DHT22;38531;53.296;6.614;2023-02-22T11:28:13;9.80;99.90
52643;DHT22;38531;53.296;6.614;2023-02-22T11:30:42;9.80;99.90
52643;DHT22;38531;53.296;6.614;2023-02-22T11:33:20;9.90;99.90
52643;DHT22;38531;53.296;6.614;2023-02-22T11:38:24;10.00;99.90
52643;DHT22;38531;53.296;6.614;2023-02-22T11:41:25;10.10;99.90
52643;DHT22;38531;53.296;6.614;2023-02-22T11:43:51;10.20;99.90
52643;DHT22;38531;53.296;6.614;2023-02-22T11:46:26;10.20;99.90
52643;DHT22;38531;53.296;6.614;2023-02-22T11:49:02;10.30;99.90
52643;DHT22;38531;53.296;6.614;2023-02-22T12:08:35;10.40;99.90
52643;DHT22;38531;53.296;6.614;2023-02-22T12:11:12;10.50;99.90
52643;DHT22;38531;53.296;6.614;2023-02-22T12:13:47;10.40;99.90
52643;DHT22;38531;53.296;6.614;2023-02-22T12:19:40;10.40;99.90
52643;DHT22;38531;53.296;6.614;2023-02-22T12:22:27;10.40;99.90
52643;DHT22;38531;53.296;6.614;2023-02-22T12:27:32;10.00;99.90
52643;DHT22;38531;53.296;6.614;2023-02-22T12:30:22;10.40;99.90
52643;DHT22;38531;53.296;6.614;2023-02-22T12:32:59;10.40;99.90
52643;DHT22;38531;53.296;6.614;2023-02-22T12:35:37;10.40;99.90
52643;DHT22;38531;53.296;6.614;2023-02-22T12:43:38;10.50;99.90
52643;DHT22;38531;53.296;6.614;2023-02-22T12:46:35;10.50;99.90
52643;DHT22;38531;53.296;6.614;2023-02-22T12:51:58;10.60;99.90
52643;DHT22;38531;53.296;6.614;2023-02-22T12:55:14;10.70;99.90
52643;DHT22;38531;53.296;6.614;2023-02-22T13:00:03;10.90;99.90
52643;DHT22;38531;53.296;6.614;2023-02-22T13:05:30;10.90;99.90
52643;DHT22;38531;53.296;6.614;2023-02-22T13:20:46;11.30;99.90
52643;DHT22;38531;53.296;6.614;2023-02-22T13:34:23;10.80;99.90
52643;DHT22;38531;53.296;6.614;2023-02-22T13:48:51;10.80;99.90
52643;DHT22;38531;53.296;6.614;2023-02-22T13:57:44;10.80;99.90
52643;DHT22;38531;53.296;6.614;2023-02-22T14:06:05;10.80;99.90
52643;DHT22;38531;53.296;6.614;2023-02-22T14:17:49;10.90;99.90
52643;DHT22;38531;53.296;6.614;2023-02-22T14:25:50;10.50;99.90
52643;DHT22;38531;53.296;6.614;2023-02-22T14:28:36;10.40;99.90
52643;DHT22;38531;53.296;6.614;2023-02-22T14:31:26;10.50;99.90
52643;DHT22;38531;53.296;6.614;2023-02-22T14:37:10;10.40;99.90
52643;DHT22;38531;53.296;6.614;2023-02-22T14:39:50;10.40;99.90
52643;DHT22;38531;53.296;6.614;2023-02-22T14:47:53;10.30;99.90
52643;DHT22;38531;53.296;6.614;2023-02-22T14:51:03;10.30;99.90
52643;DHT22;38531;53.296;6.614;2023-02-22T14:53:45;10.20;99.90
52643;DHT22;38531;53.296;6.614;2023-02-22T14:56:27;10.30;99.90
52643;DHT22;38531;53.296;6.614;2023-02-22T14:59:20;10.10;99.90
52643;DHT22;38531;53.296;6.614;2023-02-22T15:01:46;10.20;99.90
52643;DHT22;38531;53.296;6.614;2023-02-22T15:06:58;10.20;99.90
52643;DHT22;38531;53.296;6.614;2023-02-22T15:09:27;10.90;99.90
52643;DHT22;38531;53.296;6.614;2023-02-22T15:15:54;10.20;99.90
52643;DHT22;38531;53.296;6.614;2023-02-22T15:18:28;10.20;99.90
52643;DHT22;38531;53.296;6.614;2023-02-22T15:20:57;10.20;99.90
52643;DHT22;38531;53.296;6.614;2023-02-22T15:23:30;10.20;99.90
52643;DHT22;38531;53.296;6.614;2023-02-22T15:26:21;10.20;99.90
52643;DHT22;38531;53.296;6.614;2023-02-22T15:28:54;10.10;99.90
52643;DHT22;38531;53.296;6.614;2023-02-22T15:36:37;10.20;99.90
52643;DHT22;38531;53.296;6.614;2023-02-22T15:42:01;10.10;99.90
52643;DHT22;38531;53.296;6.614;2023-02-22T15:44:27;10.10;99.90
52643;DHT22;38531;53.296;6.614;2023-02-22T15:46:56;10.10;99.90
52643;DHT22;38531;53.296;6.614;2023-02-22T15:49:26;10.00;99.90
52643;DHT22;38531;53.296;6.614;2023-02-22T15:52:09;10.00;99.90
52643;DHT22;38531;53.296;6.614;2023-02-22T15:54:46;10.00;99.90
52643;DHT22;38531;53.296;6.614;2023-02-22T15:57:22;9.90;99.90
52643;DHT22;38531;53.296;6.614;2023-02-22T15:59:55;9.90;99.90
52643;DHT22;38531;53.296;6.614;2023-02-22T16:04:58;9.70;99.90
52643;DHT22;38531;53.296;6.614;2023-02-22T16:07:25;10.00;99.90
52643;DHT22;38531;53.296;6.614;2023-02-22T16:09:51;9.60;99.90
52643;DHT22;38531;53.296;6.614;2023-02-22T16:14:46;9.60;99.90
52643;DHT22;38531;53.296;6.614;2023-02-22T16:17:31;9.50;99.90
52643;DHT22;38531;53.296;6.614;2023-02-22T16:22:37;9.40;99.90
52643;DHT22;38531;53.296;6.614;2023-02-22T16:27:53;9.40;99.90
52643;DHT22;38531;53.296;6.614;2023-02-22T16:32:49;9.30;99.90
52643;DHT22;38531;53.296;6.614;2023-02-22T16:35:16;9.30;99.90
52643;DHT22;38531;53.296;6.614;2023-02-22T16:37:55;9.30;99.90
52643;DHT22;38531;53.296;6.614;2023-02-22T16:43:03;9.20;99.90
52643;DHT22;38531;53.296;6.614;2023-02-22T16:45:30;9.10;99.90
52643;DHT22;38531;53.296;6.614;2023-02-22T16:47:58;9.10;99.90
52643;DHT22;38531;53.296;6.614;2023-02-22T16:50:24;9.10;99.90
52643;DHT22;38531;53.296;6.614;2023-02-22T16:52:51;9.10;99.90
52643;DHT22;38531;53.296;6.614;2023-02-22T16:55:19;8.90;99.90
52643;DHT22;38531;53.296;6.614;2023-02-22T16:57:55;9.00;99.90
52643;DHT22;38531;53.296;6.614;2023-02-22T17:00:23;8.90;99.90
52643;DHT22;38531;53.296;6.614;2023-02-22T17:03:14;8.50;99.90
52643;DHT22;38531;53.296;6.614;2023-02-22T17:05:40;8.80;99.90
52643;DHT22;38531;53.296;6.614;2023-02-22T17:08:06;8.60;99.90
52643;DHT22;38531;53.296;6.614;2023-02-22T17:10:32;8.70;99.90
52643;DHT22;38531;53.296;6.614;2023-02-22T17:12:59;8.40;99.90
52643;DHT22;38531;53.296;6.614;2023-02-22T17:15:28;8.60;99.90
52643;DHT22;38531;53.296;6.614;2023-02-22T17:17:55;8.60;99.90
52643;DHT22;38531;53.296;6.614;2023-02-22T17:20:22;8.60;99.90
52643;DHT22;38531;53.296;6.614;2023-02-22T17:23:02;8.50;99.90
52643;DHT22;38531;53.296;6.614;2023-02-22T17:25:39;8.40;99.90
52643;DHT22;38531;53.296;6.614;2023-02-22T17:28:06;8.40;99.90
52643;DHT22;38531;53.296;6.614;2023-02-22T17:30:33;8.30;99.90
52643;DHT22;38531;53.296;6.614;2023-02-22T17:33:04;8.20;99.90
52643;DHT22;38531;53.296;6.614;2023-02-22T17:35:32;8.20;99.90
52643;DHT22;38531;53.296;6.614;2023-02-22T17:37:59;9.10;99.90
52643;DHT22;38531;53.296;6.614;2023-02-22T17:40:26;8.10;99.90
52643;DHT22;38531;53.296;6.614;2023-02-22T17:46:35;8.10;99.90
52643;DHT22;38531;53.296;6.614;2023-02-22T17:49:00;8.00;99.90
52643;DHT22;38531;53.296;6.614;2023-02-22T17:51:27;7.90;99.90
52643;DHT22;38531;53.296;6.614;2023-02-22T17:53:53;8.00;99.90
52643;DHT22;38531;53.296;6.614;2023-02-22T17:56:19;7.90;99.90
52643;DHT22;38531;53.296;6.614;2023-02-22T17:58:51;7.90;99.90
52643;DHT22;38531;53.296;6.614;2023-02-22T18:01:26;7.80;99.90
52643;DHT22;38531;53.296;6.614;2023-02-22T18:03:54;7.90;99.90
52643;DHT22;38531;53.296;6.614;2023-02-22T18:06:22;7.90;99.90
52643;DHT22;38531;53.296;6.614;2023-02-22T18:08:48;7.70;99.90
52643;DHT22;38531;53.296;6.614;2023-02-22T18:11:14;7.90;99.90
52643;DHT22;38531;53.296;6.614;2023-02-22T18:13:40;7.80;99.90
52643;DHT22;38531;53.296;6.614;2023-02-22T18:16:06;7.70;99.90
52643;DHT22;38531;53.296;6.614;2023-02-22T18:18:34;7.70;99.90
52643;DHT22;38531;53.296;6.614;2023-02-22T18:21:00;7.70;99.90
52643;DHT22;38531;53.296;6.614;2023-02-22T18:23:28;7.70;99.90
52643;DHT22;38531;53.296;6.614;2023-02-22T18:25:55;7.70;99.90
52643;DHT22;38531;53.296;6.614;2023-02-22T18:28:22;7.70;99.90
52643;DHT22;38531;53.296;6.614;2023-02-22T18:30:48;7.70;99.90
52643;DHT22;38531;53.296;6.614;2023-02-22T18:33:15;7.60;99.90
52643;DHT22;38531;53.296;6.614;2023-02-22T18:35:49;7.60;99.90
52643;DHT22;38531;53.296;6.614;2023-02-22T18:38:21;8.30;99.90
52643;DHT22;38531;53.296;6.614;2023-02-22T18:41:04;7.60;99.90
52643;DHT22;38531;53.296;6.614;2023-02-22T18:43:31;7.60;99.90
52643;DHT22;38531;53.296;6.614;2023-02-22T18:46:09;8.10;99.90
52643;DHT22;38531;53.296;6.614;2023-02-22T18:48:36;7.50;99.90
52643;DHT22;38531;53.296;6.614;2023-02-22T18:51:04;7.50;99.90
52643;DHT22;38531;53.296;6.614;2023-02-22T18:53:31;7.50;99.90
52643;DHT22;38531;53.296;6.614;2023-02-22T18:56:04;8.60;99.90
52643;DHT22;38531;53.296;6.614;2023-02-22T18:58:30;7.40;99.90
52643;DHT22;38531;53.296;6.614;2023-02-22T19:01:02;7.40;99.90
52643;DHT22;38531;53.296;6.614;2023-02-22T19:03:31;7.40;99.90
52643;DHT22;38531;53.296;6.614;2023-02-22T19:06:05;7.40;99.90
52643;DHT22;38531;53.296;6.614;2023-02-22T19:08:38;7.40;99.90
52643;DHT22;38531;53.296;6.614;2023-02-22T19:11:13;7.40;99.90
52643;DHT22;38531;53.296;6.614;2023-02-22T19:13:45;7.40;99.90
52643;DHT22;38531;53.296;6.614;2023-02-22T19:16:12;7.50;99.90
52643;DHT22;38531;53.296;6.614;2023-02-22T19:18:38;7.50;99.90
52643;DHT22;38531;53.296;6.614;2023-02-22T19:21:05;7.40;99.90
52643;DHT22;38531;53.296;6.614;2023-02-22T19:23:35;7.40;99.90
52643;DHT22;38531;53.296;6.614;2023-02-22T19:26:02;7.50;99.90
52643;DHT22;38531;53.296;6.614;2023-02-22T19:28:28;7.50;99.90
52643;DHT22;38531;53.296;6.614;2023-02-22T19:31:13;7.60;99.90
52643;DHT22;38531;53.296;6.614;2023-02-22T19:33:39;7.60;99.90
52643;DHT22;38531;53.296;6.614;2023-02-22T19:36:05;7.50;99.90
52643;DHT22;38531;53.296;6.614;2023-02-22T19:38:31;7.50;99.90
52643;DHT22;38531;53.296;6.614;2023-02-22T19:40:57;7.50;99.90
52643;DHT22;38531;53.296;6.614;2023-02-22T19:43:23;7.50;99.90
52643;DHT22;38531;53.296;6.614;2023-02-22T19:45:51;7.50;99.90
52643;DHT22;38531;53.296;6.614;2023-02-22T19:48:17;7.50;99.90
52643;DHT22;38531;53.296;6.614;2023-02-22T19:50:43;7.50;99.90